This is the latest recevied weather packets stored in our database for station/object KF0FSA. If no packets are shown the sender has not sent any weather packets the latest 10 day(s).
| Time | Temp. | Humidity | Pressure | Rain* | Wind** | Luminosity | Snow |
|---|---|---|---|---|---|---|---|
| 1777787663 | 15° C | 39% | 955 hPa | 0 mm | - | 0 W/m² | - |
| 1777787364 | 15° C | 39% | 954.9 hPa | 0 mm | - | 0 W/m² | - |
| 1777787063 | 15° C | 39% | 954.9 hPa | 0 mm | - | 0 W/m² | - |
| 1777786764 | 15.56° C | 38% | 955 hPa | 0 mm | - | 0 W/m² | - |
| 1777786464 | 15.56° C | 38% | 955.1 hPa | 0 mm | - | 0 W/m² | - |
| 1777786165 | 15.56° C | 37% | 955.1 hPa | 0 mm | - | 0 W/m² | - |
| 1777785864 | 16.11° C | 37% | 955.2 hPa | 0 mm | - | 0 W/m² | - |
| 1777785564 | 15.56° C | 37% | 955 hPa | 0 mm | - | 0 W/m² | - |
| 1777785261 | 15.56° C | 39% | 955.1 hPa | 0 mm | - | 0 W/m² | - |
| 1777784961 | 16.11° C | 38% | 955.1 hPa | 0 mm | - | 0 W/m² | - |
| 1777784659 | 16.11° C | 38% | 955.1 hPa | 0 mm | - | 0 W/m² | - |
| 1777784355 | 16.11° C | 38% | 955.2 hPa | 0 mm | - | 0 W/m² | - |
| 1777784055 | 16.67° C | 37% | 955.3 hPa | 0 mm | - | 0 W/m² | - |
| 1777783755 | 16.67° C | 37% | 955.4 hPa | 0 mm | - | 0 W/m² | - |
| 1777783455 | 17.22° C | 35% | 955.5 hPa | 0 mm | - | 0 W/m² | - |
| 1777783276 | 17.22° C | 34% | 955.7 hPa | 0 mm | - | 0 W/m² | - |
| 1777782976 | 16.67° C | 36% | 956 hPa | 0 mm | - | 0 W/m² | - |
| 1777782552 | 16.67° C | 36% | 956 hPa | 0 mm | - | 0 W/m² | - |
| 1777782253 | 16.67° C | 37% | 956.3 hPa | 0 mm | - | 0 W/m² | - |
| 1777781953 | 15.56° C | 40% | 956.3 hPa | 0 mm | - | 0 W/m² | - |
| 1777781652 | 16.11° C | 40% | 956.4 hPa | 0 mm | - | 0 W/m² | - |
| 1777781477 | 16.67° C | 37% | 956.3 hPa | 0 mm | - | 0 W/m² | - |
| 1777781053 | 16.67° C | 37% | 955.5 hPa | 0 mm | - | 0 W/m² | - |
| 1777780753 | 16.67° C | 35% | 955.6 hPa | 0 mm | - | 0 W/m² | - |
| 1777780453 | 16.11° C | 35% | 955.3 hPa | 0 mm | - | 0 W/m² | - |
* Rain latest hour (hover to see other rain measurements)
** Current wind speed in m/s (hover to see current wind gust speed)